sensor_id;sensor_type;location;lat;lon;timestamp;P1;durP1;ratioP1;P2;durP2;ratioP2
35743;SDS011;21867;52.012;4.324;2022-07-05T00:00:45;4.17;;;2.57;;
35743;SDS011;21867;52.012;4.324;2022-07-05T00:03:13;4.47;;;3.40;;
35743;SDS011;21867;52.012;4.324;2022-07-05T00:05:42;4.97;;;3.10;;
35743;SDS011;21867;52.012;4.324;2022-07-05T00:08:09;6.87;;;2.97;;
35743;SDS011;21867;52.012;4.324;2022-07-05T00:10:36;3.13;;;2.33;;
35743;SDS011;21867;52.012;4.324;2022-07-05T00:13:05;4.93;;;2.87;;
35743;SDS011;21867;52.012;4.324;2022-07-05T00:15:32;3.90;;;2.67;;
35743;SDS011;21867;52.012;4.324;2022-07-05T00:18:00;2.70;;;2.40;;
35743;SDS011;21867;52.012;4.324;2022-07-05T00:20:27;4.70;;;2.40;;
35743;SDS011;21867;52.012;4.324;2022-07-05T00:22:56;3.90;;;2.53;;
35743;SDS011;21867;52.012;4.324;2022-07-05T00:25:23;12.27;;;4.50;;
35743;SDS011;21867;52.012;4.324;2022-07-05T00:27:50;7.23;;;3.67;;
35743;SDS011;21867;52.012;4.324;2022-07-05T00:30:17;5.00;;;3.60;;
35743;SDS011;21867;52.012;4.324;2022-07-05T00:32:45;3.97;;;2.87;;
35743;SDS011;21867;52.012;4.324;2022-07-05T00:35:12;3.33;;;2.60;;
35743;SDS011;21867;52.012;4.324;2022-07-05T00:37:40;5.83;;;2.93;;
35743;SDS011;21867;52.012;4.324;2022-07-05T00:40:09;8.43;;;2.43;;
35743;SDS011;21867;52.012;4.324;2022-07-05T00:42:38;4.23;;;2.87;;
35743;SDS011;21867;52.012;4.324;2022-07-05T00:45:06;4.73;;;3.37;;
35743;SDS011;21867;52.012;4.324;2022-07-05T00:47:33;5.67;;;2.80;;
35743;SDS011;21867;52.012;4.324;2022-07-05T00:50:01;4.90;;;3.10;;
35743;SDS011;21867;52.012;4.324;2022-07-05T00:52:28;7.37;;;3.27;;
35743;SDS011;21867;52.012;4.324;2022-07-05T00:54:56;8.70;;;4.53;;
35743;SDS011;21867;52.012;4.324;2022-07-05T00:57:26;6.27;;;2.83;;
35743;SDS011;21867;52.012;4.324;2022-07-05T00:59:53;7.73;;;3.53;;
35743;SDS011;21867;52.012;4.324;2022-07-05T01:02:20;6.40;;;3.37;;
35743;SDS011;21867;52.012;4.324;2022-07-05T01:04:48;7.87;;;3.73;;
35743;SDS011;21867;52.012;4.324;2022-07-05T01:07:17;6.30;;;3.83;;
35743;SDS011;21867;52.012;4.324;2022-07-05T01:09:44;5.17;;;3.90;;
35743;SDS011;21867;52.012;4.324;2022-07-05T01:12:12;5.10;;;3.80;;
35743;SDS011;21867;52.012;4.324;2022-07-05T01:14:41;3.77;;;3.43;;
35743;SDS011;21867;52.012;4.324;2022-07-05T01:17:09;4.73;;;3.93;;
35743;SDS011;21867;52.012;4.324;2022-07-05T01:19:37;4.03;;;3.47;;
35743;SDS011;21867;52.012;4.324;2022-07-05T01:22:04;6.33;;;3.97;;
35743;SDS011;21867;52.012;4.324;2022-07-05T01:24:37;5.20;;;4.03;;
35743;SDS011;21867;52.012;4.324;2022-07-05T01:27:05;5.10;;;3.70;;
35743;SDS011;21867;52.012;4.324;2022-07-05T01:29:33;7.17;;;4.00;;
35743;SDS011;21867;52.012;4.324;2022-07-05T01:32:00;8.03;;;4.50;;
35743;SDS011;21867;52.012;4.324;2022-07-05T01:34:27;4.23;;;3.83;;
35743;SDS011;21867;52.012;4.324;2022-07-05T01:36:56;6.00;;;4.63;;
35743;SDS011;21867;52.012;4.324;2022-07-05T01:39:24;4.77;;;4.37;;
35743;SDS011;21867;52.012;4.324;2022-07-05T01:42:00;5.50;;;5.00;;
35743;SDS011;21867;52.012;4.324;2022-07-05T01:44:27;5.70;;;4.27;;
35743;SDS011;21867;52.012;4.324;2022-07-05T01:46:55;5.00;;;4.60;;
35743;SDS011;21867;52.012;4.324;2022-07-05T01:49:25;5.33;;;4.50;;
35743;SDS011;21867;52.012;4.324;2022-07-05T01:51:54;6.13;;;4.00;;
35743;SDS011;21867;52.012;4.324;2022-07-05T01:54:22;10.20;;;4.50;;
35743;SDS011;21867;52.012;4.324;2022-07-05T01:56:49;4.83;;;4.33;;
35743;SDS011;21867;52.012;4.324;2022-07-05T01:59:18;4.90;;;3.97;;
35743;SDS011;21867;52.012;4.324;2022-07-05T02:01:45;5.47;;;4.03;;
35743;SDS011;21867;52.012;4.324;2022-07-05T02:04:13;7.23;;;4.80;;
35743;SDS011;21867;52.012;4.324;2022-07-05T02:06:41;8.03;;;4.63;;
35743;SDS011;21867;52.012;4.324;2022-07-05T02:09:24;5.40;;;4.43;;
35743;SDS011;21867;52.012;4.324;2022-07-05T02:11:52;5.80;;;4.63;;
35743;SDS011;21867;52.012;4.324;2022-07-05T02:14:22;5.57;;;4.73;;
35743;SDS011;21867;52.012;4.324;2022-07-05T02:16:49;8.77;;;5.03;;
35743;SDS011;21867;52.012;4.324;2022-07-05T02:19:17;5.63;;;5.10;;
35743;SDS011;21867;52.012;4.324;2022-07-05T02:21:46;6.93;;;5.03;;
35743;SDS011;21867;52.012;4.324;2022-07-05T02:24:16;6.30;;;5.20;;
35743;SDS011;21867;52.012;4.324;2022-07-05T02:26:52;6.60;;;5.57;;
35743;SDS011;21867;52.012;4.324;2022-07-05T02:29:22;7.00;;;5.17;;
35743;SDS011;21867;52.012;4.324;2022-07-05T02:31:50;6.17;;;5.60;;
35743;SDS011;21867;52.012;4.324;2022-07-05T02:34:17;5.60;;;5.20;;
35743;SDS011;21867;52.012;4.324;2022-07-05T02:36:45;5.87;;;5.00;;
35743;SDS011;21867;52.012;4.324;2022-07-05T02:39:14;7.30;;;5.50;;
35743;SDS011;21867;52.012;4.324;2022-07-05T02:41:43;7.43;;;5.60;;
35743;SDS011;21867;52.012;4.324;2022-07-05T02:44:27;6.10;;;5.47;;
35743;SDS011;21867;52.012;4.324;2022-07-05T02:46:55;6.00;;;5.40;;
35743;SDS011;21867;52.012;4.324;2022-07-05T02:49:24;7.40;;;6.13;;
35743;SDS011;21867;52.012;4.324;2022-07-05T02:51:52;6.83;;;6.23;;
35743;SDS011;21867;52.012;4.324;2022-07-05T02:54:20;7.63;;;6.93;;
35743;SDS011;21867;52.012;4.324;2022-07-05T02:56:49;9.80;;;7.70;;
35743;SDS011;21867;52.012;4.324;2022-07-05T02:59:16;8.07;;;7.27;;
35743;SDS011;21867;52.012;4.324;2022-07-05T03:01:45;10.10;;;7.47;;
35743;SDS011;21867;52.012;4.324;2022-07-05T03:04:15;8.03;;;7.23;;
35743;SDS011;21867;52.012;4.324;2022-07-05T03:06:49;8.00;;;7.03;;
35743;SDS011;21867;52.012;4.324;2022-07-05T03:09:20;7.40;;;6.67;;
35743;SDS011;21867;52.012;4.324;2022-07-05T03:11:48;8.30;;;7.37;;
35743;SDS011;21867;52.012;4.324;2022-07-05T03:14:25;9.03;;;7.57;;
35743;SDS011;21867;52.012;4.324;2022-07-05T03:16:54;11.37;;;8.30;;
35743;SDS011;21867;52.012;4.324;2022-07-05T03:19:22;10.93;;;7.43;;
35743;SDS011;21867;52.012;4.324;2022-07-05T03:21:50;9.43;;;7.20;;
35743;SDS011;21867;52.012;4.324;2022-07-05T03:24:18;9.50;;;7.30;;
35743;SDS011;21867;52.012;4.324;2022-07-05T03:26:45;8.20;;;7.40;;
35743;SDS011;21867;52.012;4.324;2022-07-05T03:29:20;8.83;;;7.97;;
35743;SDS011;21867;52.012;4.324;2022-07-05T03:31:48;9.50;;;7.53;;
35743;SDS011;21867;52.012;4.324;2022-07-05T03:34:17;9.10;;;8.20;;
35743;SDS011;21867;52.012;4.324;2022-07-05T03:36:45;10.47;;;7.67;;
35743;SDS011;21867;52.012;4.324;2022-07-05T03:42:25;7.70;;;7.07;;
35743;SDS011;21867;52.012;4.324;2022-07-05T03:44:53;8.00;;;7.23;;
35743;SDS011;21867;52.012;4.324;2022-07-05T03:47:21;9.03;;;8.13;;
35743;SDS011;21867;52.012;4.324;2022-07-05T03:49:50;8.13;;;7.17;;
35743;SDS011;21867;52.012;4.324;2022-07-05T03:52:17;9.77;;;7.23;;
35743;SDS011;21867;52.012;4.324;2022-07-05T03:54:51;7.53;;;6.80;;
35743;SDS011;21867;52.012;4.324;2022-07-05T03:57:19;8.67;;;7.77;;
35743;SDS011;21867;52.012;4.324;2022-07-05T03:59:46;8.07;;;7.00;;
35743;SDS011;21867;52.012;4.324;2022-07-05T04:02:15;7.43;;;6.77;;
35743;SDS011;21867;52.012;4.324;2022-07-05T04:04:43;11.97;;;7.87;;
35743;SDS011;21867;52.012;4.324;2022-07-05T04:07:11;9.17;;;8.27;;
35743;SDS011;21867;52.012;4.324;2022-07-05T04:09:39;8.77;;;7.93;;
35743;SDS011;21867;52.012;4.324;2022-07-05T04:12:13;10.10;;;7.63;;
35743;SDS011;21867;52.012;4.324;2022-07-05T04:14:42;8.13;;;7.43;;
35743;SDS011;21867;52.012;4.324;2022-07-05T04:17:09;8.73;;;7.83;;
35743;SDS011;21867;52.012;4.324;2022-07-05T04:19:37;8.97;;;7.30;;
35743;SDS011;21867;52.012;4.324;2022-07-05T04:22:04;8.60;;;7.80;;
35743;SDS011;21867;52.012;4.324;2022-07-05T04:24:34;10.90;;;7.77;;
35743;SDS011;21867;52.012;4.324;2022-07-05T04:27:01;9.40;;;8.40;;
35743;SDS011;21867;52.012;4.324;2022-07-05T04:29:28;10.90;;;7.93;;
35743;SDS011;21867;52.012;4.324;2022-07-05T04:31:56;9.30;;;7.93;;
35743;SDS011;21867;52.012;4.324;2022-07-05T04:34:24;9.50;;;7.83;;
35743;SDS011;21867;52.012;4.324;2022-07-05T04:37:00;9.43;;;8.40;;
35743;SDS011;21867;52.012;4.324;2022-07-05T04:42:20;11.53;;;9.47;;
35743;SDS011;21867;52.012;4.324;2022-07-05T04:44:48;9.63;;;8.37;;
35743;SDS011;21867;52.012;4.324;2022-07-05T04:47:15;10.23;;;8.43;;
35743;SDS011;21867;52.012;4.324;2022-07-05T04:49:42;10.80;;;9.67;;
35743;SDS011;21867;52.012;4.324;2022-07-05T04:52:10;11.53;;;10.33;;
35743;SDS011;21867;52.012;4.324;2022-07-05T04:54:37;10.73;;;9.63;;
35743;SDS011;21867;52.012;4.324;2022-07-05T04:57:05;13.27;;;9.70;;
35743;SDS011;21867;52.012;4.324;2022-07-05T04:59:33;9.80;;;8.53;;
35743;SDS011;21867;52.012;4.324;2022-07-05T05:02:01;10.80;;;9.47;;
35743;SDS011;21867;52.012;4.324;2022-07-05T05:04:28;10.87;;;9.00;;
35743;SDS011;21867;52.012;4.324;2022-07-05T05:07:02;15.50;;;9.47;;
35743;SDS011;21867;52.012;4.324;2022-07-05T05:12:19;10.93;;;8.70;;
35743;SDS011;21867;52.012;4.324;2022-07-05T05:14:47;9.27;;;7.97;;
35743;SDS011;21867;52.012;4.324;2022-07-05T05:17:15;14.40;;;8.50;;
35743;SDS011;21867;52.012;4.324;2022-07-05T05:19:42;9.27;;;8.00;;
35743;SDS011;21867;52.012;4.324;2022-07-05T05:22:10;7.97;;;7.03;;
35743;SDS011;21867;52.012;4.324;2022-07-05T05:24:37;9.10;;;7.50;;
35743;SDS011;21867;52.012;4.324;2022-07-05T05:27:04;7.90;;;6.07;;
35743;SDS011;21867;52.012;4.324;2022-07-05T05:29:32;3.40;;;3.07;;
35743;SDS011;21867;52.012;4.324;2022-07-05T05:32:00;4.00;;;3.30;;
35743;SDS011;21867;52.012;4.324;2022-07-05T05:34:28;6.70;;;2.90;;
35743;SDS011;21867;52.012;4.324;2022-07-05T05:36:55;2.40;;;2.20;;
35743;SDS011;21867;52.012;4.324;2022-07-05T05:39:22;5.63;;;3.23;;
35743;SDS011;21867;52.012;4.324;2022-07-05T05:41:55;3.23;;;2.63;;
35743;SDS011;21867;52.012;4.324;2022-07-05T05:44:31;4.37;;;3.00;;
35743;SDS011;21867;52.012;4.324;2022-07-05T05:47:05;3.13;;;1.70;;
35743;SDS011;21867;52.012;4.324;2022-07-05T05:49:34;3.73;;;2.50;;
35743;SDS011;21867;52.012;4.324;2022-07-05T05:52:02;4.53;;;1.90;;
35743;SDS011;21867;52.012;4.324;2022-07-05T05:54:29;4.30;;;2.10;;
35743;SDS011;21867;52.012;4.324;2022-07-05T05:56:56;4.23;;;2.43;;
35743;SDS011;21867;52.012;4.324;2022-07-05T05:59:23;3.37;;;2.27;;
35743;SDS011;21867;52.012;4.324;2022-07-05T06:01:51;2.53;;;2.07;;
35743;SDS011;21867;52.012;4.324;2022-07-05T06:04:20;3.37;;;2.10;;
35743;SDS011;21867;52.012;4.324;2022-07-05T06:06:47;2.33;;;1.43;;
35743;SDS011;21867;52.012;4.324;2022-07-05T06:09:14;5.40;;;1.70;;
35743;SDS011;21867;52.012;4.324;2022-07-05T06:11:42;5.17;;;2.00;;
35743;SDS011;21867;52.012;4.324;2022-07-05T06:14:09;2.93;;;1.53;;
35743;SDS011;21867;52.012;4.324;2022-07-05T06:16:36;4.37;;;1.30;;
35743;SDS011;21867;52.012;4.324;2022-07-05T06:19:04;5.43;;;1.73;;
35743;SDS011;21867;52.012;4.324;2022-07-05T06:21:32;4.07;;;1.80;;
35743;SDS011;21867;52.012;4.324;2022-07-05T06:23:59;2.53;;;1.27;;
35743;SDS011;21867;52.012;4.324;2022-07-05T06:26:27;3.43;;;1.53;;
35743;SDS011;21867;52.012;4.324;2022-07-05T06:28:54;1.80;;;1.43;;
35743;SDS011;21867;52.012;4.324;2022-07-05T06:31:21;6.13;;;1.40;;
35743;SDS011;21867;52.012;4.324;2022-07-05T06:33:49;3.63;;;1.40;;
35743;SDS011;21867;52.012;4.324;2022-07-05T06:36:16;3.60;;;1.20;;
35743;SDS011;21867;52.012;4.324;2022-07-05T06:38:45;3.53;;;1.60;;
35743;SDS011;21867;52.012;4.324;2022-07-05T06:41:12;1.43;;;1.10;;
35743;SDS011;21867;52.012;4.324;2022-07-05T06:43:39;3.07;;;1.80;;
35743;SDS011;21867;52.012;4.324;2022-07-05T06:46:08;2.50;;;1.33;;
35743;SDS011;21867;52.012;4.324;2022-07-05T06:48:35;4.73;;;1.60;;
35743;SDS011;21867;52.012;4.324;2022-07-05T06:51:02;2.80;;;1.60;;
35743;SDS011;21867;52.012;4.324;2022-07-05T06:53:30;4.70;;;1.60;;
35743;SDS011;21867;52.012;4.324;2022-07-05T06:55:59;5.17;;;1.40;;
35743;SDS011;21867;52.012;4.324;2022-07-05T06:58:26;1.90;;;1.20;;
35743;SDS011;21867;52.012;4.324;2022-07-05T07:00:53;5.13;;;2.07;;
35743;SDS011;21867;52.012;4.324;2022-07-05T07:03:40;3.37;;;1.20;;
35743;SDS011;21867;52.012;4.324;2022-07-05T07:06:28;3.30;;;1.10;;
35743;SDS011;21867;52.012;4.324;2022-07-05T07:08:56;1.77;;;1.20;;
35743;SDS011;21867;52.012;4.324;2022-07-05T07:11:24;2.67;;;1.27;;
35743;SDS011;21867;52.012;4.324;2022-07-05T07:13:52;1.90;;;1.30;;
35743;SDS011;21867;52.012;4.324;2022-07-05T07:16:19;1.23;;;0.90;;
35743;SDS011;21867;52.012;4.324;2022-07-05T07:18:46;2.93;;;1.30;;
35743;SDS011;21867;52.012;4.324;2022-07-05T07:21:34;6.90;;;1.50;;
35743;SDS011;21867;52.012;4.324;2022-07-05T07:24:01;2.90;;;1.00;;
35743;SDS011;21867;52.012;4.324;2022-07-05T07:26:30;2.40;;;1.40;;
35743;SDS011;21867;52.012;4.324;2022-07-05T07:28:57;2.73;;;1.47;;
35743;SDS011;21867;52.012;4.324;2022-07-05T07:31:24;2.57;;;1.23;;
35743;SDS011;21867;52.012;4.324;2022-07-05T07:33:52;3.90;;;1.67;;
35743;SDS011;21867;52.012;4.324;2022-07-05T07:36:19;3.97;;;1.70;;
35743;SDS011;21867;52.012;4.324;2022-07-05T07:38:46;1.53;;;1.17;;
35743;SDS011;21867;52.012;4.324;2022-07-05T07:41:12;2.30;;;1.00;;
35743;SDS011;21867;52.012;4.324;2022-07-05T07:43:41;3.87;;;1.90;;
35743;SDS011;21867;52.012;4.324;2022-07-05T07:46:08;4.40;;;1.40;;
35743;SDS011;21867;52.012;4.324;2022-07-05T07:48:35;5.17;;;1.73;;
35743;SDS011;21867;52.012;4.324;2022-07-05T07:51:03;2.93;;;1.30;;
35743;SDS011;21867;52.012;4.324;2022-07-05T07:53:30;4.63;;;1.63;;
35743;SDS011;21867;52.012;4.324;2022-07-05T07:55:57;3.47;;;1.50;;
35743;SDS011;21867;52.012;4.324;2022-07-05T07:58:25;2.33;;;1.17;;
35743;SDS011;21867;52.012;4.324;2022-07-05T08:00:53;3.77;;;1.80;;
35743;SDS011;21867;52.012;4.324;2022-07-05T08:03:20;4.33;;;1.80;;
35743;SDS011;21867;52.012;4.324;2022-07-05T08:05:48;2.87;;;1.33;;
35743;SDS011;21867;52.012;4.324;2022-07-05T08:08:16;4.40;;;1.50;;
35743;SDS011;21867;52.012;4.324;2022-07-05T08:10:44;2.60;;;1.40;;
35743;SDS011;21867;52.012;4.324;2022-07-05T08:13:11;7.10;;;1.90;;
35743;SDS011;21867;52.012;4.324;2022-07-05T08:15:38;1.43;;;1.00;;
35743;SDS011;21867;52.012;4.324;2022-07-05T08:18:07;2.60;;;1.10;;
35743;SDS011;21867;52.012;4.324;2022-07-05T08:20:34;4.63;;;1.00;;
35743;SDS011;21867;52.012;4.324;2022-07-05T08:23:01;3.77;;;1.67;;
35743;SDS011;21867;52.012;4.324;2022-07-05T08:25:29;2.33;;;1.10;;
35743;SDS011;21867;52.012;4.324;2022-07-05T08:27:56;2.00;;;1.00;;
35743;SDS011;21867;52.012;4.324;2022-07-05T08:33:30;3.33;;;1.40;;
35743;SDS011;21867;52.012;4.324;2022-07-05T08:35:57;2.67;;;1.30;;
35743;SDS011;21867;52.012;4.324;2022-07-05T08:38:24;3.93;;;1.47;;
35743;SDS011;21867;52.012;4.324;2022-07-05T08:40:52;4.60;;;1.40;;
35743;SDS011;21867;52.012;4.324;2022-07-05T08:43:21;3.80;;;1.40;;
35743;SDS011;21867;52.012;4.324;2022-07-05T08:45:58;2.40;;;1.30;;
35743;SDS011;21867;52.012;4.324;2022-07-05T08:48:54;4.67;;;1.40;;
35743;SDS011;21867;52.012;4.324;2022-07-05T08:51:37;5.50;;;1.60;;
35743;SDS011;21867;52.012;4.324;2022-07-05T08:54:04;3.83;;;1.50;;
35743;SDS011;21867;52.012;4.324;2022-07-05T08:56:32;4.27;;;1.50;;
35743;SDS011;21867;52.012;4.324;2022-07-05T08:59:20;3.10;;;1.33;;
35743;SDS011;21867;52.012;4.324;2022-07-05T09:01:47;3.50;;;1.53;;
35743;SDS011;21867;52.012;4.324;2022-07-05T09:04:17;4.90;;;1.77;;
35743;SDS011;21867;52.012;4.324;2022-07-05T09:06:45;2.57;;;1.43;;
35743;SDS011;21867;52.012;4.324;2022-07-05T09:09:13;2.77;;;1.50;;
35743;SDS011;21867;52.012;4.324;2022-07-05T09:11:43;4.00;;;1.73;;
35743;SDS011;21867;52.012;4.324;2022-07-05T09:14:31;7.53;;;2.20;;
35743;SDS011;21867;52.012;4.324;2022-07-05T09:16:59;6.13;;;1.60;;
35743;SDS011;21867;52.012;4.324;2022-07-05T09:19:28;1.17;;;1.00;;
35743;SDS011;21867;52.012;4.324;2022-07-05T09:22:00;4.33;;;1.20;;
35743;SDS011;21867;52.012;4.324;2022-07-05T09:24:27;4.30;;;1.63;;
35743;SDS011;21867;52.012;4.324;2022-07-05T09:27:01;1.67;;;1.10;;
35743;SDS011;21867;52.012;4.324;2022-07-05T09:29:28;2.10;;;1.40;;
35743;SDS011;21867;52.012;4.324;2022-07-05T09:32:22;2.93;;;1.33;;
35743;SDS011;21867;52.012;4.324;2022-07-05T09:34:51;5.27;;;1.77;;
35743;SDS011;21867;52.012;4.324;2022-07-05T09:37:18;4.23;;;1.17;;
35743;SDS011;21867;52.012;4.324;2022-07-05T09:39:46;4.50;;;1.60;;
35743;SDS011;21867;52.012;4.324;2022-07-05T09:42:15;3.73;;;1.77;;
35743;SDS011;21867;52.012;4.324;2022-07-05T09:44:42;4.20;;;1.23;;
35743;SDS011;21867;52.012;4.324;2022-07-05T09:47:11;6.83;;;1.33;;
35743;SDS011;21867;52.012;4.324;2022-07-05T09:49:41;5.13;;;1.77;;
35743;SDS011;21867;52.012;4.324;2022-07-05T09:52:30;14.73;;;4.10;;
35743;SDS011;21867;52.012;4.324;2022-07-05T09:55:02;4.47;;;1.53;;
35743;SDS011;21867;52.012;4.324;2022-07-05T09:57:30;5.93;;;1.50;;
35743;SDS011;21867;52.012;4.324;2022-07-05T09:59:57;4.53;;;1.57;;
35743;SDS011;21867;52.012;4.324;2022-07-05T10:02:33;1.53;;;1.07;;
35743;SDS011;21867;52.012;4.324;2022-07-05T10:05:10;6.07;;;2.73;;
35743;SDS011;21867;52.012;4.324;2022-07-05T10:07:40;4.20;;;1.47;;
35743;SDS011;21867;52.012;4.324;2022-07-05T10:10:18;25.80;;;7.20;;
35743;SDS011;21867;52.012;4.324;2022-07-05T10:12:46;18.23;;;5.07;;
35743;SDS011;21867;52.012;4.324;2022-07-05T10:15:15;14.33;;;4.07;;
35743;SDS011;21867;52.012;4.324;2022-07-05T10:17:46;4.93;;;1.80;;
35743;SDS011;21867;52.012;4.324;2022-07-05T10:20:17;4.50;;;1.10;;
35743;SDS011;21867;52.012;4.324;2022-07-05T10:22:46;1.60;;;1.00;;
35743;SDS011;21867;52.012;4.324;2022-07-05T10:25:14;2.00;;;1.10;;
35743;SDS011;21867;52.012;4.324;2022-07-05T10:27:41;2.27;;;1.10;;
35743;SDS011;21867;52.012;4.324;2022-07-05T10:30:09;2.23;;;1.27;;
35743;SDS011;21867;52.012;4.324;2022-07-05T10:32:38;1.63;;;1.00;;
35743;SDS011;21867;52.012;4.324;2022-07-05T10:35:06;4.17;;;1.10;;
35743;SDS011;21867;52.012;4.324;2022-07-05T10:37:34;2.63;;;1.23;;
35743;SDS011;21867;52.012;4.324;2022-07-05T10:40:04;3.87;;;1.00;;
35743;SDS011;21867;52.012;4.324;2022-07-05T10:42:33;1.03;;;0.90;;
35743;SDS011;21867;52.012;4.324;2022-07-05T10:45:02;3.87;;;1.37;;
35743;SDS011;21867;52.012;4.324;2022-07-05T10:47:29;2.87;;;1.30;;
35743;SDS011;21867;52.012;4.324;2022-07-05T10:50:00;2.80;;;1.20;;
35743;SDS011;21867;52.012;4.324;2022-07-05T10:52:28;1.30;;;0.93;;
35743;SDS011;21867;52.012;4.324;2022-07-05T10:57:43;1.23;;;0.93;;
35743;SDS011;21867;52.012;4.324;2022-07-05T11:00:10;1.57;;;1.20;;
35743;SDS011;21867;52.012;4.324;2022-07-05T11:02:38;1.53;;;1.00;;
35743;SDS011;21867;52.012;4.324;2022-07-05T11:05:05;1.83;;;0.90;;
35743;SDS011;21867;52.012;4.324;2022-07-05T11:10:19;1.43;;;0.80;;
35743;SDS011;21867;52.012;4.324;2022-07-05T11:12:47;2.30;;;0.77;;
35743;SDS011;21867;52.012;4.324;2022-07-05T11:15:15;3.57;;;1.10;;
35743;SDS011;21867;52.012;4.324;2022-07-05T11:17:42;3.33;;;1.00;;
35743;SDS011;21867;52.012;4.324;2022-07-05T11:23:03;2.77;;;1.13;;
35743;SDS011;21867;52.012;4.324;2022-07-05T11:25:32;2.78;;;1.27;;
35743;SDS011;21867;52.012;4.324;2022-07-05T11:28:03;8.23;;;1.73;;
35743;SDS011;21867;52.012;4.324;2022-07-05T11:30:31;1.57;;;0.90;;
35743;SDS011;21867;52.012;4.324;2022-07-05T11:33:25;1.73;;;0.90;;
35743;SDS011;21867;52.012;4.324;2022-07-05T11:35:52;2.57;;;1.10;;
35743;SDS011;21867;52.012;4.324;2022-07-05T11:38:20;2.00;;;1.05;;
35743;SDS011;21867;52.012;4.324;2022-07-05T11:41:10;1.60;;;0.93;;
35743;SDS011;21867;52.012;4.324;2022-07-05T11:43:39;1.90;;;0.85;;
35743;SDS011;21867;52.012;4.324;2022-07-05T11:46:07;1.92;;;1.10;;
35743;SDS011;21867;52.012;4.324;2022-07-05T11:48:38;1.70;;;0.98;;
35743;SDS011;21867;52.012;4.324;2022-07-05T11:51:13;1.55;;;1.00;;
35743;SDS011;21867;52.012;4.324;2022-07-05T11:53:41;2.97;;;1.25;;
35743;SDS011;21867;52.012;4.324;2022-07-05T11:56:28;2.15;;;0.95;;
35743;SDS011;21867;52.012;4.324;2022-07-05T11:58:57;2.80;;;1.05;;
35743;SDS011;21867;52.012;4.324;2022-07-05T12:01:24;4.13;;;1.40;;
35743;SDS011;21867;52.012;4.324;2022-07-05T12:03:52;1.30;;;1.00;;
35743;SDS011;21867;52.012;4.324;2022-07-05T12:06:19;3.97;;;1.17;;
35743;SDS011;21867;52.012;4.324;2022-07-05T12:08:47;3.60;;;1.33;;
35743;SDS011;21867;52.012;4.324;2022-07-05T12:11:14;3.23;;;1.23;;
35743;SDS011;21867;52.012;4.324;2022-07-05T12:13:43;2.90;;;1.10;;
35743;SDS011;21867;52.012;4.324;2022-07-05T12:16:12;2.17;;;0.93;;
35743;SDS011;21867;52.012;4.324;2022-07-05T12:18:46;2.05;;;0.80;;
35743;SDS011;21867;52.012;4.324;2022-07-05T12:21:13;3.45;;;1.20;;
35743;SDS011;21867;52.012;4.324;2022-07-05T12:23:41;4.22;;;1.10;;
35743;SDS011;21867;52.012;4.324;2022-07-05T12:26:08;1.20;;;0.85;;
35743;SDS011;21867;52.012;4.324;2022-07-05T12:28:35;2.50;;;1.00;;
35743;SDS011;21867;52.012;4.324;2022-07-05T12:31:15;2.20;;;1.15;;
35743;SDS011;21867;52.012;4.324;2022-07-05T12:33:42;1.13;;;0.90;;
35743;SDS011;21867;52.012;4.324;2022-07-05T12:36:10;1.45;;;1.17;;
35743;SDS011;21867;52.012;4.324;2022-07-05T12:38:39;2.55;;;1.00;;
35743;SDS011;21867;52.012;4.324;2022-07-05T12:41:06;2.55;;;1.20;;
35743;SDS011;21867;52.012;4.324;2022-07-05T12:43:47;2.03;;;1.33;;
35743;SDS011;21867;52.012;4.324;2022-07-05T12:46:16;2.95;;;1.10;;
35743;SDS011;21867;52.012;4.324;2022-07-05T12:48:43;3.33;;;1.35;;
35743;SDS011;21867;52.012;4.324;2022-07-05T12:51:11;3.20;;;1.30;;
35743;SDS011;21867;52.012;4.324;2022-07-05T12:53:45;7.43;;;1.55;;
35743;SDS011;21867;52.012;4.324;2022-07-05T12:56:13;4.07;;;1.30;;
35743;SDS011;21867;52.012;4.324;2022-07-05T12:58:44;4.85;;;1.77;;
35743;SDS011;21867;52.012;4.324;2022-07-05T13:01:23;3.70;;;1.40;;
35743;SDS011;21867;52.012;4.324;2022-07-05T13:03:57;2.88;;;1.25;;
35743;SDS011;21867;52.012;4.324;2022-07-05T13:06:38;6.63;;;1.52;;
35743;SDS011;21867;52.012;4.324;2022-07-05T13:09:06;1.70;;;0.90;;
35743;SDS011;21867;52.012;4.324;2022-07-05T13:11:33;2.92;;;1.33;;
35743;SDS011;21867;52.012;4.324;2022-07-05T13:14:00;6.80;;;1.65;;
35743;SDS011;21867;52.012;4.324;2022-07-05T13:16:29;5.28;;;2.08;;
35743;SDS011;21867;52.012;4.324;2022-07-05T13:19:05;4.72;;;1.73;;
35743;SDS011;21867;52.012;4.324;2022-07-05T13:21:32;4.30;;;1.80;;
35743;SDS011;21867;52.012;4.324;2022-07-05T13:24:00;1.80;;;1.20;;
35743;SDS011;21867;52.012;4.324;2022-07-05T13:26:27;3.20;;;1.50;;
35743;SDS011;21867;52.012;4.324;2022-07-05T13:28:54;2.90;;;1.13;;
35743;SDS011;21867;52.012;4.324;2022-07-05T13:31:24;2.42;;;1.45;;
35743;SDS011;21867;52.012;4.324;2022-07-05T13:33:53;4.05;;;1.27;;
35743;SDS011;21867;52.012;4.324;2022-07-05T13:36:20;5.32;;;1.52;;
35743;SDS011;21867;52.012;4.324;2022-07-05T13:38:47;2.72;;;1.58;;
35743;SDS011;21867;52.012;4.324;2022-07-05T13:41:14;3.90;;;1.98;;
35743;SDS011;21867;52.012;4.324;2022-07-05T13:43:42;3.08;;;1.38;;
35743;SDS011;21867;52.012;4.324;2022-07-05T13:46:09;4.85;;;1.85;;
35743;SDS011;21867;52.012;4.324;2022-07-05T13:48:36;3.63;;;1.48;;
35743;SDS011;21867;52.012;4.324;2022-07-05T13:51:05;2.97;;;1.30;;
35743;SDS011;21867;52.012;4.324;2022-07-05T13:53:33;2.22;;;1.13;;
35743;SDS011;21867;52.012;4.324;2022-07-05T13:56:00;2.20;;;1.20;;
35743;SDS011;21867;52.012;4.324;2022-07-05T13:58:28;4.35;;;1.13;;
35743;SDS011;21867;52.012;4.324;2022-07-05T14:00:55;4.25;;;1.63;;
35743;SDS011;21867;52.012;4.324;2022-07-05T14:03:22;2.92;;;1.35;;
35743;SDS011;21867;52.012;4.324;2022-07-05T14:05:49;3.00;;;1.40;;
35743;SDS011;21867;52.012;4.324;2022-07-05T14:08:18;3.53;;;1.10;;
35743;SDS011;21867;52.012;4.324;2022-07-05T14:10:45;3.80;;;1.67;;
35743;SDS011;21867;52.012;4.324;2022-07-05T14:13:13;2.72;;;1.40;;
35743;SDS011;21867;52.012;4.324;2022-07-05T14:15:40;3.53;;;1.10;;
35743;SDS011;21867;52.012;4.324;2022-07-05T14:18:07;6.45;;;1.55;;
35743;SDS011;21867;52.012;4.324;2022-07-05T14:20:35;1.38;;;1.15;;
35743;SDS011;21867;52.012;4.324;2022-07-05T14:23:02;4.35;;;1.73;;
35743;SDS011;21867;52.012;4.324;2022-07-05T14:25:31;3.75;;;1.92;;
35743;SDS011;21867;52.012;4.324;2022-07-05T14:27:58;1.90;;;1.17;;
35743;SDS011;21867;52.012;4.324;2022-07-05T14:30:25;3.78;;;1.27;;
35743;SDS011;21867;52.012;4.324;2022-07-05T14:32:53;4.25;;;1.08;;
35743;SDS011;21867;52.012;4.324;2022-07-05T14:35:20;5.32;;;1.30;;
35743;SDS011;21867;52.012;4.324;2022-07-05T14:37:47;4.10;;;2.00;;
35743;SDS011;21867;52.012;4.324;2022-07-05T14:40:15;4.47;;;1.63;;
35743;SDS011;21867;52.012;4.324;2022-07-05T14:42:43;6.75;;;1.25;;
35743;SDS011;21867;52.012;4.324;2022-07-05T14:45:11;6.82;;;1.40;;
35743;SDS011;21867;52.012;4.324;2022-07-05T14:47:38;4.82;;;1.30;;
35743;SDS011;21867;52.012;4.324;2022-07-05T14:50:05;4.53;;;1.80;;
35743;SDS011;21867;52.012;4.324;2022-07-05T14:52:33;2.80;;;1.58;;
35743;SDS011;21867;52.012;4.324;2022-07-05T14:55:01;3.90;;;1.20;;
35743;SDS011;21867;52.012;4.324;2022-07-05T14:57:29;4.13;;;1.23;;
35743;SDS011;21867;52.012;4.324;2022-07-05T14:59:59;4.13;;;1.75;;
35743;SDS011;21867;52.012;4.324;2022-07-05T15:02:30;2.40;;;1.38;;
35743;SDS011;21867;52.012;4.324;2022-07-05T15:05:00;4.15;;;1.23;;
35743;SDS011;21867;52.012;4.324;2022-07-05T15:07:31;6.53;;;1.70;;
35743;SDS011;21867;52.012;4.324;2022-07-05T15:10:01;4.70;;;1.40;;
35743;SDS011;21867;52.012;4.324;2022-07-05T15:12:28;4.53;;;1.58;;
35743;SDS011;21867;52.012;4.324;2022-07-05T15:14:55;3.30;;;1.58;;
35743;SDS011;21867;52.012;4.324;2022-07-05T15:17:26;4.18;;;1.73;;